投稿到民航资源网

这“货”八成是渴了,冲出跑道喝口水

 2022-09-25 08:11:07 来源:民航资源网 作者:陈建国  [投稿排行榜]

分享

    负责事故调查的法国事故调查局BAE发布信息,一架737-400型货机在法国蒙彼利埃机场落地后冲出跑道,机头侵入水中。

    机上只有3名机组人员,没有人员伤亡。

    根据Aviation Herald报道,这架Swift air波音737-400货机代表瑞典西大西洋航空公司的(West Atlantic Sweden)执行SWN-5745航班,注册号为EC-NLS。

    飞机从巴黎戴高乐机场飞往法国蒙彼利埃,机上有3名机组人员,于当地时间02:36(世界标准时00:36,北京时间今天早上8点36分)降落在蒙彼利埃的12L跑道上时冲出跑道。在超过跑道末端约200米/650英尺时,前轮河里,泡在水中。

    机场报告说,飞机的前部(机头)部分淹没在L'Etang de Mauguio河中。机场关闭了所有航班,直到飞机可以被移走。

    Related NOTAM:A4505/22 NOTAMNQ) LFMM/QFALC/IV/NBO/A /000/999/4335N00358E005A) LFMT B) 2209240155 C) 2209252359E) AD CLOSED.

    当时的天气:有短时侧风和阵风。

    LFMT 240030Z AUTO 09011KT 050V130 5000 RA BR SCT013/// BKN022/// BKN028/// ///CB 17/16 Q1013 TEMPO 01015G25KT BECMG NSW BKN045 BKN055=

    事故原因还需等事故调查。

    1荐闻榜

    (供稿:爱飞行航空俱乐部

    更多文章和观点请访问陈建国专题

    延伸阅读: